Time;durP1;ratioP1;P1;durP2;ratioP2;P2;SDS_P1;SDS_P2;PMS_P1;PMS_P2;Temp;Humidity;BMP_temperature;BMP_pressure;BME280_temperature;BME280_humidity;BME280_pressure;Samples;Min_cycle;Max_cycle;Signal;HPM_P1;HPM_P2
2022/10/07 00:00:46;;;;;;;14.05;5.57;;;;;;;20.66;55.06;100769.38;5103393;28;20117;-78
2022/10/07 00:03:13;;;;;;;18.08;6.70;;;;;;;20.83;55.02;100777.75;5112197;28;20052;-78
2022/10/07 00:05:41;;;;;;;14.95;5.68;;;;;;;20.83;55.02;100791.97;5109392;28;20055;-77
2022/10/07 00:08:08;;;;;;;18.27;6.40;;;;;;;20.82;55.17;100781.78;5103770;28;20051;-78
2022/10/07 00:10:39;;;;;;;19.30;9.35;;;;;;;20.82;55.12;100773.28;5110457;28;20046;-79
2022/10/07 00:13:08;;;;;;;20.35;7.18;;;;;;;20.82;55.00;100773.28;5098429;28;20048;-77
2022/10/07 00:15:35;;;;;;;15.13;6.57;;;;;;;20.80;54.96;100775.63;5105260;28;20434;-76
2022/10/07 00:18:02;;;;;;;22.08;6.78;;;;;;;20.84;54.66;100762.38;5105406;28;20047;-75
2022/10/07 00:20:29;;;;;;;21.15;6.07;;;;;;;20.89;54.41;100761.34;5113878;28;20048;-75
2022/10/07 00:22:56;;;;;;;23.33;6.03;;;;;;;21.02;53.85;100763.91;5108265;28;20048;-75
2022/10/07 00:25:23;;;;;;;17.25;6.22;;;;;;;20.99;54.20;100761.78;5106304;27;20459;-75
2022/10/07 00:27:49;;;;;;;19.50;6.28;;;;;;;21.05;54.15;100776.59;5107792;28;20058;-75
2022/10/07 00:30:16;;;;;;;17.63;6.72;;;;;;;21.01;54.48;100781.31;5110729;28;20517;-77
2022/10/07 00:32:43;;;;;;;21.80;7.22;;;;;;;21.11;53.88;100777.22;5101839;28;20044;-76
2022/10/07 00:35:10;;;;;;;12.95;7.70;;;;;;;21.06;54.00;100770.59;5113327;28;20085;-76
2022/10/07 00:37:41;;;;;;;14.73;7.30;;;;;;;21.03;53.86;100759.91;5106558;28;20055;-76
2022/10/07 00:40:11;;;;;;;20.38;6.80;;;;;;;20.93;53.64;100739.63;5110532;27;20069;-77
2022/10/07 00:42:39;;;;;;;26.08;9.20;;;;;;;21.10;53.85;100761.38;5107506;28;20478;-76
2022/10/07 00:45:18;;;;;;;26.13;7.97;;;;;;;20.99;54.15;100764.63;5110465;28;20064;-76
2022/10/07 00:47:47;;;;;;;16.88;6.85;;;;;;;20.83;54.35;100741.69;5101344;28;20127;-76
2022/10/07 00:50:26;;;;;;;26.88;7.15;;;;;;;20.78;54.48;100752.41;5099920;28;20054;-79
2022/10/07 00:52:58;;;;;;;19.77;6.70;;;;;;;20.79;54.54;100760.59;5100295;28;20047;-79
2022/10/07 00:55:28;;;;;;;18.50;8.10;;;;;;;20.84;54.28;100753.88;5112652;28;20075;-73
2022/10/07 00:58:00;;;;;;;17.67;7.10;;;;;;;20.81;54.21;100744.03;5106709;28;20047;-76
2022/10/07 01:00:27;;;;;;;21.73;7.95;;;;;;;20.91;54.06;100754.16;5102613;28;20413;-76
2022/10/07 01:02:54;;;;;;;20.15;7.78;;;;;;;20.89;54.33;100756.53;5110058;28;20048;-76
2022/10/07 01:05:20;;;;;;;15.52;8.15;;;;;;;20.81;54.15;100746.03;5111403;28;20069;-75
2022/10/07 01:07:49;;;;;;;22.50;8.63;;;;;;;20.80;54.46;100752.91;5102311;28;20059;-75
2022/10/07 01:10:20;;;;;;;21.13;7.30;;;;;;;20.64;54.29;100727.13;5110580;28;20048;-77
2022/10/07 01:13:13;;;;;;;23.73;7.90;;;;;;;20.72;54.64;100751.81;5100567;28;20048;-77
2022/10/07 01:16:02;;;;;;;21.10;7.68;;;;;;;20.62;54.42;100742.88;5100133;28;20044;-77
2022/10/07 01:18:56;;;;;;;17.02;7.22;;;;;;;20.27;54.49;100689.97;5101545;28;20047;-76
2022/10/07 01:21:32;;;;;;;15.40;6.57;;;;;;;20.69;54.67;100754.50;5104788;28;20048;-77
2022/10/07 01:24:34;;;;;;;20.42;7.65;;;;;;;20.58;54.74;100740.72;5104203;28;20411;-76
2022/10/07 01:27:10;;;;;;;17.17;8.77;;;;;;;20.58;54.71;100752.06;5106397;28;20066;-76
2022/10/07 01:29:54;;;;;;;18.40;6.70;;;;;;;20.51;54.88;100745.25;5101639;28;20493;-78
2022/10/07 01:32:46;;;;;;;23.85;8.73;;;;;;;20.47;54.85;100744.25;5109558;28;20449;-78
2022/10/07 01:35:23;;;;;;;17.80;6.78;;;;;;;20.49;55.04;100747.56;5093736;28;20047;-78
2022/10/07 01:37:55;;;;;;;20.70;8.05;;;;;;;20.49;55.12;100751.25;5108031;28;20047;-78
2022/10/07 01:40:32;;;;;;;17.20;7.05;;;;;;;20.46;55.19;100737.75;5109328;28;20062;-78
2022/10/07 01:43:00;;;;;;;17.40;6.97;;;;;;;20.15;55.24;100694.72;5103469;28;20048;-77
2022/10/07 01:45:29;;;;;;;25.08;8.05;;;;;;;20.23;55.57;100699.50;5109409;27;20067;-77
2022/10/07 01:48:02;;;;;;;20.63;6.68;;;;;;;20.47;55.52;100739.38;5110836;28;20048;-77
2022/10/07 01:50:33;;;;;;;19.48;7.38;;;;;;;20.21;55.75;100714.03;5102051;28;20046;-77
2022/10/07 01:53:25;;;;;;;23.85;8.43;;;;;;;20.19;56.25;100727.72;5101237;28;20055;-77
2022/10/07 01:56:19;;;;;;;14.00;5.78;;;;;;;19.90;57.44;100717.19;5101925;28;20044;-77
2022/10/07 01:59:11;;;;;;;22.97;6.17;;;;;;;19.82;57.79;100732.19;5110376;28;20070;-77
2022/10/07 02:02:23;;;;;;;18.13;6.30;;;;;;;19.63;58.43;100713.59;5108969;28;20547;-77
2022/10/07 02:05:13;;;;;;;21.38;6.60;;;;;;;19.70;58.44;100723.59;5091268;28;20051;-77
2022/10/07 02:08:13;;;;;;;20.52;8.50;;;;;;;19.52;58.44;100688.75;5103044;28;20050;-77
2022/10/07 02:10:47;;;;;;;;;;;;;;;19.52;59.18;100715.13;5096998;28;20048;-76
2022/10/07 02:13:27;;;;;;;16.25;6.85;;;;;;;19.38;59.27;100697.47;5105956;28;19927;-73
2022/10/07 02:16:18;;;;;;;16.92;6.15;;;;;;;19.45;59.26;100711.94;5102427;28;20059;-74
2022/10/07 02:18:49;;;;;;;24.80;6.95;;;;;;;19.32;59.43;100684.69;5110582;28;20543;-76
2022/10/07 02:21:24;;;;;;;16.20;6.82;;;;;;;19.44;59.48;100706.63;5110236;28;20050;-78
2022/10/07 02:23:53;;;;;;;17.40;7.63;;;;;;;19.45;59.69;100708.28;5108078;28;20048;-74
2022/10/07 02:26:21;;;;;;;19.70;8.30;;;;;;;19.40;59.77;100709.28;5104747;28;20387;-75
2022/10/07 02:28:52;;;;;;;15.07;7.18;;;;;;;19.37;60.01;100712.81;5102078;28;20048;-74
2022/10/07 02:31:26;;;;;;;20.85;6.75;;;;;;;19.32;60.24;100710.16;5102166;28;20052;-74
2022/10/07 02:33:56;;;;;;;16.67;7.35;;;;;;;19.28;60.08;100692.16;5100184;28;20052;-76
2022/10/07 02:36:33;;;;;;;18.60;6.65;;;;;;;19.28;60.05;100683.66;5110385;28;20059;-74
2022/10/07 02:39:00;;;;;;;13.15;6.53;;;;;;;19.27;60.25;100690.50;5106322;28;20051;-74
2022/10/07 02:41:34;;;;;;;21.52;7.07;;;;;;;19.25;60.29;100698.47;5106349;28;20052;-75
2022/10/07 02:44:03;;;;;;;12.13;6.43;;;;;;;19.21;60.59;100701.16;5105449;28;20051;-74
2022/10/07 02:46:37;;;;;;;25.70;8.55;;;;;;;18.96;60.64;100656.75;5120648;28;20486;-75
2022/10/07 02:49:12;;;;;;;17.50;7.35;;;;;;;19.10;60.75;100671.53;5111042;28;20126;-74
2022/10/07 02:51:47;;;;;;;20.58;6.88;;;;;;;18.95;60.76;100661.56;5106420;28;20051;-74
2022/10/07 02:54:18;;;;;;;11.07;6.05;;;;;;;19.03;61.07;100663.56;5105434;28;20044;-75
2022/10/07 02:56:46;;;;;;;25.92;6.40;;;;;;;19.12;60.86;100678.53;5097210;28;20044;-74
2022/10/07 02:59:14;;;;;;;27.80;7.63;;;;;;;19.15;60.95;100677.03;5107658;28;20074;-75
2022/10/07 03:01:46;;;;;;;23.17;7.55;;;;;;;19.09;60.71;100659.38;5107176;28;20048;-74
2022/10/07 03:04:13;;;;;;;27.13;8.30;;;;;;;19.13;60.71;100662.38;5108358;28;20048;-75
2022/10/07 03:06:41;;;;;;;20.35;7.03;;;;;;;19.17;60.51;100669.84;5095411;28;20059;-77
2022/10/07 03:09:08;;;;;;;19.50;7.00;;;;;;;19.24;60.59;100668.53;5094117;28;20052;-76
2022/10/07 03:11:37;;;;;;;23.67;6.63;;;;;;;19.28;60.52;100675.16;5097974;28;20048;-77
2022/10/07 03:14:04;;;;;;;23.65;8.07;;;;;;;19.18;60.32;100648.88;5107115;28;20047;-76
2022/10/07 03:16:31;;;;;;;29.42;7.32;;;;;;;19.25;60.36;100665.38;5109000;28;20055;-76
2022/10/07 03:18:58;;;;;;;18.05;6.90;;;;;;;19.26;60.30;100661.34;5105084;28;20048;-77
2022/10/07 03:21:25;;;;;;;25.73;6.30;;;;;;;19.25;60.25;100670.16;5107146;28;20047;-77
2022/10/07 03:23:53;;;;;;;29.40;8.85;;;;;;;19.23;60.39;100661.19;5114440;28;20056;-77
2022/10/07 03:26:20;;;;;;;20.60;7.97;;;;;;;19.09;60.45;100650.91;5120344;28;20488;-76
2022/10/07 03:28:47;;;;;;;17.08;6.88;;;;;;;19.03;60.88;100657.91;5115969;28;20051;-77
2022/10/07 03:31:14;;;;;;;25.30;7.68;;;;;;;19.15;60.73;100672.22;5122232;28;20044;-77
2022/10/07 03:33:42;;;;;;;18.95;7.13;;;;;;;19.15;60.54;100671.38;5114625;28;20410;-77
2022/10/07 03:36:09;;;;;;;22.45;6.93;;;;;;;19.13;60.56;100654.72;5109278;28;20059;-77
2022/10/07 03:38:35;;;;;;;12.20;6.72;;;;;;;18.84;60.57;100613.00;5111027;28;20047;-76
2022/10/07 03:41:05;;;;;;;10.60;4.90;;;;;;;19.02;60.55;100646.94;5104077;28;20489;-78
2022/10/07 03:43:33;;;;;;;14.65;5.90;;;;;;;19.09;60.80;100667.88;5109838;28;20047;-77
2022/10/07 03:46:01;;;;;;;15.65;5.88;;;;;;;19.07;60.84;100667.38;5110427;28;20391;-79
2022/10/07 03:48:29;;;;;;;21.98;8.05;;;;;;;19.04;60.17;100645.44;5114956;28;20047;-79
2022/10/07 03:50:59;;;;;;;25.35;7.85;;;;;;;19.29;59.85;100666.34;5112891;28;20055;-78
2022/10/07 03:53:28;;;;;;;15.32;5.85;;;;;;;19.27;60.20;100667.84;5109658;28;20063;-75
2022/10/07 03:55:55;;;;;;;16.58;6.50;;;;;;;19.16;59.88;100650.38;5109176;28;20051;-75
2022/10/07 03:58:22;;;;;;;16.13;7.95;;;;;;;19.40;59.47;100669.66;5111084;27;20059;-75
2022/10/07 04:00:48;;;;;;;10.70;5.45;;;;;;;19.31;59.02;100651.84;5110523;28;20063;-75
2022/10/07 04:03:17;;;;;;;18.27;7.13;;;;;;;19.55;59.18;100673.94;5114100;28;20044;-74
2022/10/07 04:05:57;;;;;;;17.75;5.95;;;;;;;19.54;59.18;100677.94;5106715;28;20082;-75
2022/10/07 04:08:26;;;;;;;23.48;7.10;;;;;;;19.54;58.83;100677.94;5100375;28;20047;-74
2022/10/07 04:10:53;;;;;;;18.35;5.57;;;;;;;19.50;58.98;100676.97;5106326;28;20413;-75
2022/10/07 04:13:20;;;;;;;10.40;5.43;;;;;;;19.33;59.07;100666.50;5113385;28;20137;-74
2022/10/07 04:15:48;;;;;;;23.88;7.22;;;;;;;19.31;59.25;100666.81;5112481;28;20059;-75
2022/10/07 04:18:15;;;;;;;11.18;6.15;;;;;;;19.38;59.08;100674.81;5111324;28;20044;-75
2022/10/07 04:20:41;;;;;;;17.42;7.38;;;;;;;19.00;59.13;100618.94;5112064;28;20494;-74
2022/10/07 04:23:08;;;;;;;14.77;6.25;;;;;;;19.30;59.35;100664.34;5111831;28;20047;-75
2022/10/07 04:25:37;;;;;;;15.77;6.22;;;;;;;19.22;59.68;100666.03;5109758;27;20047;-74
2022/10/07 04:28:06;;;;;;;18.05;7.97;;;;;;;19.20;59.75;100661.88;5113872;28;20050;-73
2022/10/07 04:30:39;;;;;;;12.90;5.85;;;;;;;18.93;60.12;100641.25;5106062;28;20048;-74
2022/10/07 04:33:06;;;;;;;11.70;7.38;;;;;;;18.95;60.09;100667.25;5113676;28;20052;-73
2022/10/07 04:35:39;;;;;;;20.13;7.03;;;;;;;18.97;60.18;100667.72;5108531;28;20048;-74
2022/10/07 04:38:10;;;;;;;15.75;7.50;;;;;;;18.93;60.67;100672.38;5103903;28;20058;-76
2022/10/07 04:40:39;;;;;;;15.15;8.18;;;;;;;18.89;60.77;100675.06;5109431;28;20054;-73
2022/10/07 04:43:18;;;;;;;13.90;6.40;;;;;;;18.45;61.13;100626.09;5105628;28;20067;-74
2022/10/07 04:45:47;;;;;;;18.95;5.30;;;;;;;18.70;61.53;100672.56;5104808;28;20059;-74
2022/10/07 04:48:17;;;;;;;26.55;6.10;;;;;;;18.62;61.49;100650.72;5111996;28;20378;-75
2022/10/07 04:50:44;;;;;;;18.50;5.88;;;;;;;18.81;61.56;100678.72;5111272;28;20054;-75
2022/10/07 04:53:13;;;;;;;23.38;6.45;;;;;;;18.50;61.54;100627.97;5106336;28;20901;-73
2022/10/07 04:55:42;;;;;;;16.60;5.90;;;;;;;18.70;61.82;100661.22;5111667;28;20054;-74
2022/10/07 04:58:09;;;;;;;19.83;5.32;;;;;;;18.57;61.70;100664.22;5116428;28;20044;-73
2022/10/07 05:00:44;;;;;;;12.68;5.80;;;;;;;18.44;62.10;100649.06;5119129;28;20052;-73
2022/10/07 05:03:12;;;;;;;12.25;6.18;;;;;;;18.31;62.88;100647.22;5117563;28;20043;-74
2022/10/07 05:05:42;;;;;;;13.38;5.60;;;;;;;18.37;62.96;100666.53;5121487;28;20050;-74
2022/10/07 05:08:09;;;;;;;22.08;6.32;;;;;;;18.21;63.48;100654.03;5105966;28;20060;-74
2022/10/07 05:10:38;;;;;;;14.35;6.38;;;;;;;18.27;63.69;100666.00;5113142;28;20046;-75
2022/10/07 05:13:08;;;;;;;22.63;7.07;;;;;;;18.22;63.25;100661.31;5104148;28;20066;-74
2022/10/07 05:15:35;;;;;;;14.05;6.35;;;;;;;18.13;63.78;100655.66;5111956;28;20298;-75
2022/10/07 05:18:02;;;;;;;18.58;8.73;;;;;;;18.11;63.45;100641.03;5100419;28;20055;-75
2022/10/07 05:20:28;;;;;;;10.52;5.38;;;;;;;17.95;63.27;100603.94;5104883;28;20489;-75
2022/10/07 05:22:55;;;;;;;11.73;6.15;;;;;;;18.10;63.11;100647.84;5103722;28;20047;-75
2022/10/07 05:25:22;;;;;;;28.05;7.25;;;;;;;17.96;63.37;100621.72;5112897;28;20078;-75
2022/10/07 05:27:52;;;;;;;20.20;6.10;;;;;;;18.23;63.55;100663.84;5105877;28;20054;-75
2022/10/07 05:30:19;;;;;;;19.77;5.88;;;;;;;18.13;63.85;100658.50;5106341;28;20056;-76
2022/10/07 05:32:46;;;;;;;14.63;5.90;;;;;;;18.21;63.63;100677.47;5108595;28;20485;-74
2022/10/07 05:35:13;;;;;;;20.25;6.45;;;;;;;18.09;63.49;100651.84;5101803;28;20043;-75
2022/10/07 05:37:42;;;;;;;18.25;6.68;;;;;;;18.26;63.28;100661.53;5102725;28;20070;-74
2022/10/07 05:40:14;;;;;;;8.48;5.25;;;;;;;18.23;63.32;100672.31;5105810;28;20054;-74
2022/10/07 05:42:41;;;;;;;22.13;6.15;;;;;;;18.28;63.30;100667.66;5099502;28;20596;-70
2022/10/07 05:45:08;;;;;;;12.35;5.32;;;;;;;18.38;63.23;100673.00;5108131;28;20508;-69
2022/10/07 05:47:35;;;;;;;21.02;6.82;;;;;;;18.33;63.30;100676.00;5106710;28;20051;-78
2022/10/07 05:50:02;;;;;;;14.63;5.15;;;;;;;18.22;63.03;100662.19;5098470;28;20074;-78
2022/10/07 05:52:29;;;;;;;19.60;5.88;;;;;;;18.22;63.25;100684.81;5103503;28;20039;-76
2022/10/07 05:54:56;;;;;;;12.63;5.55;;;;;;;18.17;63.50;100675.63;5099537;28;20051;-75
2022/10/07 05:57:23;;;;;;;22.45;5.25;;;;;;;18.21;63.17;100687.94;5102250;28;20048;-81
2022/10/07 05:59:50;;;;;;;20.08;7.35;;;;;;;17.99;63.25;100669.94;5106702;27;20059;-79
2022/10/07 06:02:18;;;;;;;14.32;6.25;;;;;;;18.05;63.53;100664.97;5101585;28;20054;-78
2022/10/07 06:04:46;;;;;;;27.75;6.68;;;;;;;18.12;63.76;100682.28;5102300;28;20048;-77
2022/10/07 06:07:13;;;;;;;16.63;5.38;;;;;;;17.96;63.56;100667.75;5101813;28;20054;-76
2022/10/07 06:15:17;;;;;;;18.13;5.90;;;;;;;18.14;63.44;100699.72;5100553;28;20502;-75
2022/10/07 06:17:45;;;;;;;15.57;6.68;;;;;;;18.17;62.83;100670.81;5107728;28;20066;-76
2022/10/07 06:20:13;;;;;;;21.85;6.50;;;;;;;18.37;62.10;100679.84;5100267;28;20063;-76
2022/10/07 06:22:41;;;;;;;18.85;7.10;;;;;;;18.45;61.69;100676.16;5097865;28;20232;-75
2022/10/07 06:25:08;;;;;;;12.02;5.35;;;;;;;18.39;62.04;100669.88;5098110;28;20048;-75
2022/10/07 06:27:35;;;;;;;11.25;5.20;;;;;;;18.29;62.38;100669.31;5105010;28;20058;-75
2022/10/07 06:30:02;;;;;;;21.80;7.25;;;;;;;18.29;62.44;100677.81;5097576;28;20054;-75
2022/10/07 06:32:31;;;;;;;15.02;6.18;;;;;;;18.33;62.16;100676.00;5102900;28;20494;-76
2022/10/07 06:34:58;;;;;;;21.98;5.70;;;;;;;18.18;62.05;100661.16;5103219;28;20054;-75
2022/10/07 06:37:24;;;;;;;21.13;6.85;;;;;;;18.21;62.11;100671.81;5106030;28;20055;-75
2022/10/07 06:39:51;;;;;;;19.20;6.55;;;;;;;18.25;62.29;100680.47;5099651;28;20043;-76
2022/10/07 06:42:24;;;;;;;17.17;5.53;;;;;;;18.33;62.25;100684.50;5099356;28;20043;-77
2022/10/07 06:44:52;;;;;;;14.98;5.90;;;;;;;18.30;62.16;100694.44;5100973;28;20074;-77
2022/10/07 06:47:20;;;;;;;13.70;5.80;;;;;;;18.20;62.38;100683.44;5097352;28;20498;-79
2022/10/07 06:49:47;;;;;;;14.13;6.90;;;;;;;18.10;62.32;100680.94;5098732;28;20051;-76
2022/10/07 06:52:14;;;;;;;10.55;5.97;;;;;;;18.10;62.77;100695.88;5092083;28;20435;-75
2022/10/07 06:54:41;;;;;;;17.88;5.85;;;;;;;17.98;62.94;100690.88;5099951;28;20497;-75
2022/10/07 06:57:08;;;;;;;17.10;6.05;;;;;;;17.92;62.94;100697.00;5098181;28;20052;-75
2022/10/07 06:59:55;;;;;;;14.10;6.30;;;;;;;17.84;63.13;100690.13;5101609;28;22030;-75
2022/10/07 07:02:24;;;;;;;10.75;5.40;;;;;;;17.61;63.42;100658.31;5099138;28;20485;-73
2022/10/07 07:04:51;;;;;;;13.75;5.85;;;;;;;17.81;63.71;100696.47;5099060;28;20044;-75
2022/10/07 07:07:23;;;;;;;24.55;5.82;;;;;;;17.83;63.78;100705.44;5099823;28;20429;-74
2022/10/07 07:09:51;;;;;;;18.65;5.50;;;;;;;17.61;63.64;100658.31;5106132;28;20412;-74
2022/10/07 07:12:17;;;;;;;14.35;6.93;;;;;;;17.86;63.85;100709.59;5104588;28;20056;-74
2022/10/07 07:14:44;;;;;;;12.93;5.13;;;;;;;17.83;63.77;100696.97;5105272;28;20051;-75
2022/10/07 07:17:11;;;;;;;15.68;5.45;;;;;;;17.89;63.97;100703.31;5106762;28;20488;-76
2022/10/07 07:19:38;;;;;;;12.48;5.68;;;;;;;17.89;63.42;100698.47;5104696;28;20048;-74
2022/10/07 07:22:05;;;;;;;20.90;6.55;;;;;;;18.05;63.43;100714.97;5106518;28;20051;-75
2022/10/07 07:24:32;;;;;;;16.83;6.65;;;;;;;18.00;63.39;100704.66;5113286;28;20044;-75
2022/10/07 07:26:59;;;;;;;23.67;5.80;;;;;;;18.39;62.99;100726.41;5112937;28;20056;-76
2022/10/07 07:29:26;;;;;;;19.08;5.22;;;;;;;18.52;62.49;100721.75;5107615;28;20048;-75
2022/10/07 07:31:53;;;;;;;18.92;5.68;;;;;;;18.78;61.68;100729.50;5106702;28;20071;-75
2022/10/07 07:34:20;;;;;;;21.05;7.35;;;;;;;19.02;61.40;100729.00;5110141;27;20044;-75
2022/10/07 07:36:50;;;;;;;13.68;5.00;;;;;;;18.91;61.20;100703.03;5112809;28;20044;-75
2022/10/07 07:39:17;;;;;;;18.15;4.68;;;;;;;19.08;60.91;100717.19;5114947;28;20051;-75
2022/10/07 07:41:46;;;;;;;11.18;4.65;;;;;;;19.24;60.67;100744.97;5111289;28;20494;-74
2022/10/07 07:44:16;;;;;;;24.55;5.30;;;;;;;19.33;60.44;100734.47;5112352;28;20043;-76
2022/10/07 07:46:47;;;;;;;15.23;6.20;;;;;;;19.46;60.17;100732.63;5114285;28;20059;-75
2022/10/07 07:49:14;;;;;;;20.73;6.50;;;;;;;19.70;59.96;100749.09;5105825;28;20039;-74
2022/10/07 07:51:42;;;;;;;18.45;6.78;;;;;;;19.90;59.52;100748.38;5109054;28;20047;-75
2022/10/07 07:54:10;;;;;;;10.68;5.35;;;;;;;20.09;59.24;100745.94;5107242;28;20059;-74
2022/10/07 07:56:37;;;;;;;23.77;5.20;;;;;;;20.22;58.94;100740.38;5105820;28;20052;-74
2022/10/07 07:59:04;;;;;;;15.05;6.15;;;;;;;20.45;58.73;100755.13;5110135;28;20070;-74
2022/10/07 08:01:31;;;;;;;17.50;5.47;;;;;;;20.64;58.24;100761.19;5112557;28;20669;-74
2022/10/07 08:03:59;;;;;;;29.00;6.82;;;;;;;20.89;57.98;100765.03;5113586;28;20073;-75
2022/10/07 08:06:27;;;;;;;22.77;5.93;;;;;;;21.13;57.56;100755.81;5095594;28;20055;-74
2022/10/07 08:08:58;;;;;;;23.35;5.97;;;;;;;21.35;57.36;100756.66;5095465;28;20059;-75
2022/10/07 08:11:26;;;;;;;24.73;6.32;;;;;;;21.60;56.71;100758.41;5104842;28;20104;-75
2022/10/07 08:13:54;;;;;;;17.33;5.95;;;;;;;21.85;56.43;100764.19;5110430;28;20040;-74
2022/10/07 08:16:23;;;;;;;16.67;5.20;;;;;;;22.04;55.70;100769.28;5112034;28;20513;-75
2022/10/07 08:18:52;;;;;;;20.10;4.93;;;;;;;22.15;55.45;100761.97;5108209;28;20055;-74
2022/10/07 08:21:20;;;;;;;23.83;5.65;;;;;;;22.22;54.83;100740.31;5110443;28;20055;-74
2022/10/07 08:23:56;;;;;;;17.20;5.20;;;;;;;22.27;54.66;100719.31;5111077;28;20062;-74
2022/10/07 08:26:24;;;;;;;19.52;6.82;;;;;;;22.90;53.85;100772.97;5107075;27;20051;-74
2022/10/07 08:28:51;;;;;;;21.13;5.82;;;;;;;23.00;53.36;100777.38;5103598;28;20077;-75
2022/10/07 08:31:18;;;;;;;21.88;4.97;;;;;;;22.86;52.93;100744.38;5111616;28;20059;-74
2022/10/07 08:33:47;;;;;;;21.45;6.22;;;;;;;23.02;52.83;100772.16;5109556;28;20083;-76
2022/10/07 08:36:17;;;;;;;25.47;6.57;;;;;;;23.05;52.35;100780.81;5110394;28;20478;-77
2022/10/07 08:38:45;;;;;;;20.40;6.40;;;;;;;23.23;52.57;100769.97;5110681;28;20051;-75
2022/10/07 08:41:38;;;;;;;15.60;4.80;;;;;;;23.55;51.49;100772.91;5111563;28;20055;-74
2022/10/07 08:44:16;;;;;;;13.00;4.82;;;;;;;23.82;51.37;100779.81;5108590;28;20043;-74
2022/10/07 08:47:14;;;;;;;17.98;6.63;;;;;;;24.15;51.42;100782.34;5114910;28;20056;-75
2022/10/07 08:49:55;;;;;;;18.58;6.45;;;;;;;24.43;50.87;100750.06;5127461;28;20504;-74
2022/10/07 08:52:45;;;;;;;20.85;6.53;;;;;;;24.81;50.22;100786.47;5114078;28;20048;-75
2022/10/07 08:55:49;;;;;;;21.00;6.43;;;;;;;25.10;49.93;100785.09;5111770;28;20058;-74
2022/10/07 08:58:31;;;;;;;15.20;6.03;;;;;;;25.31;48.50;100806.81;5109990;28;20434;-75
2022/10/07 09:01:16;;;;;;;18.13;5.97;;;;;;;25.34;48.60;100801.19;5113331;28;20498;-74
2022/10/07 09:04:04;;;;;;;21.88;6.20;;;;;;;25.58;47.97;100791.47;5115324;28;20081;-75
2022/10/07 09:06:55;;;;;;;15.20;6.13;;;;;;;25.73;47.52;100789.72;5114964;28;20055;-75
2022/10/07 09:09:27;;;;;;;16.20;7.20;;;;;;;25.73;47.20;100801.16;5112858;28;20051;-75
2022/10/07 09:11:56;;;;;;;20.38;5.82;;;;;;;25.52;46.60;100790.13;5108873;28;20059;-75
2022/10/07 09:14:37;;;;;;;18.52;6.28;;;;;;;25.36;46.07;100801.59;5109809;28;20051;-75
2022/10/07 09:17:12;;;;;;;17.40;5.90;;;;;;;25.48;46.37;100804.34;5104662;28;20059;-74
2022/10/07 09:19:56;;;;;;;21.73;5.90;;;;;;;25.78;46.41;100795.16;5107767;28;20050;-74
2022/10/07 09:22:41;;;;;;;27.13;7.05;;;;;;;25.84;46.05;100772.78;5109478;28;20051;-71
2022/10/07 09:25:11;;;;;;;27.50;7.53;;;;;;;26.48;45.65;100801.78;5101432;28;20055;-75
2022/10/07 09:27:38;;;;;;;25.90;7.88;;;;;;;27.07;44.53;100801.06;5100103;28;20054;-76
2022/10/07 09:30:06;;;;;;;15.90;6.88;;;;;;;27.51;43.70;100786.13;5102667;28;20047;-76
2022/10/07 09:32:38;;;;;;;24.70;5.97;;;;;;;27.92;42.77;100754.66;5097381;28;20042;-75
2022/10/07 09:35:10;;;;;;;15.45;6.03;;;;;;;28.42;42.49;100812.63;5084427;28;20178;-75
2022/10/07 09:37:54;;;;;;;16.63;5.72;;;;;;;28.56;42.15;100801.25;5103470;28;20059;-75
2022/10/07 09:43:35;;;;;;;17.70;5.45;;;;;;;28.41;42.07;100798.63;5098684;28;20047;-75
2022/10/07 09:46:02;;;;;;;27.55;7.00;;;;;;;28.68;41.45;100796.41;5102642;28;20048;-76
2022/10/07 09:48:33;;;;;;;25.55;6.50;;;;;;;29.25;40.52;100802.56;5105570;28;20054;-75
2022/10/07 09:51:17;;;;;;;21.73;6.65;;;;;;;29.26;40.20;100804.19;5105560;28;20062;-75
2022/10/07 09:54:01;;;;;;;20.05;6.72;;;;;;;28.99;40.35;100798.72;5100499;28;20137;-76
2022/10/07 09:56:36;;;;;;;21.65;6.60;;;;;;;29.09;40.41;100794.25;5107093;28;20051;-75
2022/10/07 09:59:18;;;;;;;19.67;5.10;;;;;;;29.24;39.48;100795.16;5099208;28;20056;-75
2022/10/07 10:02:14;;;;;;;18.95;5.30;;;;;;;29.24;39.60;100800.91;5105770;28;20506;-75
2022/10/07 10:04:53;;;;;;;18.60;5.57;;;;;;;29.21;38.65;100799.66;5103658;27;20461;-75
2022/10/07 10:07:27;;;;;;;20.10;4.73;;;;;;;29.11;38.41;100808.22;5102522;28;20048;-78
2022/10/07 10:09:56;;;;;;;16.48;7.03;;;;;;;29.29;38.21;100789.00;5110391;28;20052;-76
2022/10/07 10:12:24;;;;;;;23.27;6.15;;;;;;;29.65;38.13;100798.66;5095413;28;20059;-75
2022/10/07 10:14:51;;;;;;;19.70;4.67;;;;;;;29.70;37.94;100806.06;5102722;28;20058;-74
2022/10/07 10:17:36;;;;;;;15.35;5.95;;;;;;;29.83;38.03;100787.22;5105422;28;20048;-76
2022/10/07 10:20:29;;;;;;;20.58;5.38;;;;;;;30.20;37.52;100792.66;5102454;28;20058;-75
2022/10/07 10:23:00;;;;;;;20.35;5.10;;;;;;;30.60;36.87;100786.91;5096065;28;20351;-75
2022/10/07 10:26:26;;;;;;;17.92;5.05;;;;;;;31.09;36.88;100791.81;5104918;28;20052;-75
2022/10/07 10:29:18;;;;;;;16.30;5.35;;;;;;;31.57;36.39;100793.34;5097260;28;20057;-75
2022/10/07 10:31:53;;;;;;;22.27;4.40;;;;;;;31.81;35.65;100801.06;5111742;28;20502;-76
2022/10/07 10:34:48;;;;;;;10.27;4.70;;;;;;;32.19;35.26;100786.81;5103141;28;20048;-76
2022/10/07 10:37:19;;;;;;;19.98;5.55;;;;;;;32.62;34.45;100798.09;5099863;28;20505;-76
2022/10/07 10:39:58;;;;;;;21.85;4.88;;;;;;;32.82;34.13;100785.91;5098910;28;20052;-77
2022/10/07 10:42:48;;;;;;;;;;;;;;;32.69;35.88;100782.75;5105200;28;20051;-75
2022/10/07 10:45:24;;;;;;;12.52;5.05;;;;;;;32.79;34.28;100782.63;5099191;28;19919;-75
2022/10/07 10:48:16;;;;;;;14.35;4.68;;;;;;;32.39;34.25;100716.91;5102021;28;20054;-76
2022/10/07 10:51:13;;;;;;;15.23;4.82;;;;;;;32.52;33.97;100775.88;5097095;28;20051;-77
2022/10/07 10:53:55;;;;;;;11.05;4.30;;;;;;;32.28;33.92;100772.72;5110409;28;20055;-76
2022/10/07 10:56:25;;;;;;;14.07;5.40;;;;;;;32.62;33.83;100777.03;5109859;28;20052;-76
2022/10/07 10:59:02;;;;;;;15.55;4.55;;;;;;;32.93;32.85;100772.16;5101403;28;20048;-76
2022/10/07 11:01:35;;;;;;;17.73;5.18;;;;;;;32.88;33.20;100732.13;5101827;28;20055;-76
2022/10/07 11:04:20;;;;;;;18.73;5.20;;;;;;;33.42;32.70;100752.59;5097659;28;20044;-76
2022/10/07 11:06:54;;;;;;;25.23;5.68;;;;;;;33.40;32.34;100743.53;5105563;28;20490;-76
2022/10/07 11:09:48;;;;;;;15.35;5.35;;;;;;;33.64;32.51;100744.47;5109977;28;20047;-74
2022/10/07 11:12:23;;;;;;;16.73;5.03;;;;;;;33.94;31.05;100753.13;5108055;28;20512;-76
2022/10/07 11:14:57;;;;;;;16.42;6.32;;;;;;;34.10;30.98;100740.09;5102227;28;20048;-77
2022/10/07 11:17:30;;;;;;;16.90;4.63;;;;;;;34.45;30.23;100732.88;5094379;28;20056;-79
2022/10/07 11:20:24;;;;;;;15.68;4.93;;;;;;;34.52;30.60;100740.66;5107737;28;20059;-79
2022/10/07 11:22:57;;;;;;;20.75;5.53;;;;;;;34.84;29.89;100737.19;5104427;28;20052;-79
2022/10/07 11:25:35;;;;;;;18.10;5.72;;;;;;;34.80;29.76;100724.81;5103599;28;20055;-79
2022/10/07 11:28:18;;;;;;;13.00;5.78;;;;;;;35.06;29.67;100732.63;5096609;28;20055;-78
2022/10/07 11:31:09;;;;;;;15.50;5.85;;;;;;;35.54;29.64;100727.50;5105712;28;20075;-79
2022/10/07 11:34:06;;;;;;;23.92;8.45;;;;;;;36.11;29.58;100728.28;5078697;28;20048;-78
2022/10/07 11:36:51;;;;;;;25.50;8.27;;;;;;;36.48;29.31;100716.13;5099393;28;20047;-78
2022/10/07 11:39:20;;;;;;;21.15;7.68;;;;;;;36.69;28.82;100693.56;5104207;28;20584;-79
2022/10/07 11:41:54;;;;;;;30.23;9.90;;;;;;;37.13;27.89;100712.28;5113264;28;20048;-79
2022/10/07 11:44:29;;;;;;;37.20;11.77;;;;;;;37.05;28.07;100698.38;5104482;28;20581;-80
2022/10/07 11:47:01;;;;;;;30.55;10.10;;;;;;;37.11;27.53;100702.38;5107651;28;20047;-79
2022/10/07 11:49:40;;;;;;;26.15;9.88;;;;;;;37.31;26.98;100708.81;5103216;27;20649;-79
2022/10/07 11:52:23;;;;;;;26.77;10.23;;;;;;;37.50;27.20;100697.47;5102523;28;20516;-79